sensor_id;sensor_type;location;lat;lon;timestamp;temperature;humidity
22742;DHT22;11538;48.884;8.696;2024-03-08T00:02:15;5.90;99.90
22742;DHT22;11538;48.884;8.696;2024-03-08T00:04:42;6.00;99.90
22742;DHT22;11538;48.884;8.696;2024-03-08T00:07:09;5.90;99.90
22742;DHT22;11538;48.884;8.696;2024-03-08T00:09:36;5.90;99.90
22742;DHT22;11538;48.884;8.696;2024-03-08T00:12:03;5.90;99.90
22742;DHT22;11538;48.884;8.696;2024-03-08T00:14:30;5.90;99.90
22742;DHT22;11538;48.884;8.696;2024-03-08T00:16:57;5.90;99.90
22742;DHT22;11538;48.884;8.696;2024-03-08T00:19:24;5.90;99.90
22742;DHT22;11538;48.884;8.696;2024-03-08T00:21:51;5.80;99.90
22742;DHT22;11538;48.884;8.696;2024-03-08T00:24:18;5.80;99.90
22742;DHT22;11538;48.884;8.696;2024-03-08T00:26:45;5.80;99.90
22742;DHT22;11538;48.884;8.696;2024-03-08T00:29:12;5.80;99.90
22742;DHT22;11538;48.884;8.696;2024-03-08T00:31:39;5.80;99.90
22742;DHT22;11538;48.884;8.696;2024-03-08T00:34:06;5.70;99.90
22742;DHT22;11538;48.884;8.696;2024-03-08T00:36:33;5.70;99.90
22742;DHT22;11538;48.884;8.696;2024-03-08T00:39:00;5.70;99.90
22742;DHT22;11538;48.884;8.696;2024-03-08T00:41:28;5.60;99.90
22742;DHT22;11538;48.884;8.696;2024-03-08T00:43:55;5.60;99.90
22742;DHT22;11538;48.884;8.696;2024-03-08T00:46:22;5.60;99.90
22742;DHT22;11538;48.884;8.696;2024-03-08T00:48:49;5.50;99.90
22742;DHT22;11538;48.884;8.696;2024-03-08T00:51:16;5.40;99.90
22742;DHT22;11538;48.884;8.696;2024-03-08T00:53:43;5.40;99.90
22742;DHT22;11538;48.884;8.696;2024-03-08T00:56:10;5.30;99.90
22742;DHT22;11538;48.884;8.696;2024-03-08T00:58:37;5.20;99.90
22742;DHT22;11538;48.884;8.696;2024-03-08T01:01:04;5.20;99.90
22742;DHT22;11538;48.884;8.696;2024-03-08T01:03:31;5.10;99.90
22742;DHT22;11538;48.884;8.696;2024-03-08T01:05:58;5.00;99.90
22742;DHT22;11538;48.884;8.696;2024-03-08T01:08:28;5.00;99.90
22742;DHT22;11538;48.884;8.696;2024-03-08T01:10:55;4.90;99.90
22742;DHT22;11538;48.884;8.696;2024-03-08T01:13:22;4.90;99.90
22742;DHT22;11538;48.884;8.696;2024-03-08T01:15:49;4.90;99.90
22742;DHT22;11538;48.884;8.696;2024-03-08T01:18:16;4.90;99.90
22742;DHT22;11538;48.884;8.696;2024-03-08T01:20:43;4.90;99.90
22742;DHT22;11538;48.884;8.696;2024-03-08T01:23:10;4.90;99.90
22742;DHT22;11538;48.884;8.696;2024-03-08T01:25:37;4.80;99.90
22742;DHT22;11538;48.884;8.696;2024-03-08T01:28:04;4.80;99.90
22742;DHT22;11538;48.884;8.696;2024-03-08T01:30:31;4.70;99.90
22742;DHT22;11538;48.884;8.696;2024-03-08T01:32:59;4.70;99.90
22742;DHT22;11538;48.884;8.696;2024-03-08T01:35:27;4.60;99.90
22742;DHT22;11538;48.884;8.696;2024-03-08T01:37:54;4.50;99.90
22742;DHT22;11538;48.884;8.696;2024-03-08T01:40:21;4.50;99.90
22742;DHT22;11538;48.884;8.696;2024-03-08T01:42:49;4.50;99.90
22742;DHT22;11538;48.884;8.696;2024-03-08T01:45:16;4.50;99.90
22742;DHT22;11538;48.884;8.696;2024-03-08T01:47:45;4.40;99.90
22742;DHT22;11538;48.884;8.696;2024-03-08T01:50:15;4.40;99.90
22742;DHT22;11538;48.884;8.696;2024-03-08T01:52:43;4.40;99.90
22742;DHT22;11538;48.884;8.696;2024-03-08T01:55:10;4.30;99.90
22742;DHT22;11538;48.884;8.696;2024-03-08T01:57:36;4.30;99.90
22742;DHT22;11538;48.884;8.696;2024-03-08T02:00:05;4.30;99.90
22742;DHT22;11538;48.884;8.696;2024-03-08T02:02:33;4.30;99.90
22742;DHT22;11538;48.884;8.696;2024-03-08T02:05:01;4.20;99.90
22742;DHT22;11538;48.884;8.696;2024-03-08T02:07:29;4.20;99.90
22742;DHT22;11538;48.884;8.696;2024-03-08T02:09:55;4.10;99.90
22742;DHT22;11538;48.884;8.696;2024-03-08T02:12:22;4.10;99.90
22742;DHT22;11538;48.884;8.696;2024-03-08T02:14:50;4.10;99.90
22742;DHT22;11538;48.884;8.696;2024-03-08T02:17:17;4.10;99.90
22742;DHT22;11538;48.884;8.696;2024-03-08T02:19:44;4.00;99.90
22742;DHT22;11538;48.884;8.696;2024-03-08T02:22:11;4.00;99.90
22742;DHT22;11538;48.884;8.696;2024-03-08T02:24:38;4.00;99.90
22742;DHT22;11538;48.884;8.696;2024-03-08T02:27:05;4.00;99.90
22742;DHT22;11538;48.884;8.696;2024-03-08T02:29:33;4.00;99.90
22742;DHT22;11538;48.884;8.696;2024-03-08T02:32:00;4.00;99.90
22742;DHT22;11538;48.884;8.696;2024-03-08T02:34:27;3.90;99.90
22742;DHT22;11538;48.884;8.696;2024-03-08T02:36:54;3.90;99.90
22742;DHT22;11538;48.884;8.696;2024-03-08T02:39:23;3.90;99.90
22742;DHT22;11538;48.884;8.696;2024-03-08T02:41:50;4.00;99.90
22742;DHT22;11538;48.884;8.696;2024-03-08T02:44:17;3.90;99.90
22742;DHT22;11538;48.884;8.696;2024-03-08T02:46:43;3.90;99.90
22742;DHT22;11538;48.884;8.696;2024-03-08T02:49:10;3.90;99.90
22742;DHT22;11538;48.884;8.696;2024-03-08T02:51:38;3.90;99.90
22742;DHT22;11538;48.884;8.696;2024-03-08T02:54:05;3.90;99.90
22742;DHT22;11538;48.884;8.696;2024-03-08T02:56:32;3.80;99.90
22742;DHT22;11538;48.884;8.696;2024-03-08T02:59:01;3.90;99.90
22742;DHT22;11538;48.884;8.696;2024-03-08T03:01:28;3.80;99.90
22742;DHT22;11538;48.884;8.696;2024-03-08T03:03:55;3.80;99.90
22742;DHT22;11538;48.884;8.696;2024-03-08T03:06:22;3.80;99.90
22742;DHT22;11538;48.884;8.696;2024-03-08T03:08:49;3.80;99.90
22742;DHT22;11538;48.884;8.696;2024-03-08T03:11:18;3.80;99.90
22742;DHT22;11538;48.884;8.696;2024-03-08T03:13:45;3.70;99.90
22742;DHT22;11538;48.884;8.696;2024-03-08T03:16:18;3.70;99.90
22742;DHT22;11538;48.884;8.696;2024-03-08T03:18:49;3.70;99.90
22742;DHT22;11538;48.884;8.696;2024-03-08T03:21:16;3.70;99.90
22742;DHT22;11538;48.884;8.696;2024-03-08T03:23:44;3.70;99.90
22742;DHT22;11538;48.884;8.696;2024-03-08T03:26:11;3.60;99.90
22742;DHT22;11538;48.884;8.696;2024-03-08T03:28:39;3.60;99.90
22742;DHT22;11538;48.884;8.696;2024-03-08T03:31:07;3.60;99.90
22742;DHT22;11538;48.884;8.696;2024-03-08T03:33:36;3.50;99.90
22742;DHT22;11538;48.884;8.696;2024-03-08T03:36:06;3.50;99.90
22742;DHT22;11538;48.884;8.696;2024-03-08T03:38:35;3.50;99.90
22742;DHT22;11538;48.884;8.696;2024-03-08T03:41:02;3.50;99.90
22742;DHT22;11538;48.884;8.696;2024-03-08T03:43:37;3.40;99.90
22742;DHT22;11538;48.884;8.696;2024-03-08T03:46:08;3.40;99.90
22742;DHT22;11538;48.884;8.696;2024-03-08T03:48:37;3.50;99.90
22742;DHT22;11538;48.884;8.696;2024-03-08T03:51:05;3.50;99.90
22742;DHT22;11538;48.884;8.696;2024-03-08T03:53:32;3.40;99.90
22742;DHT22;11538;48.884;8.696;2024-03-08T03:55:59;3.40;99.90
22742;DHT22;11538;48.884;8.696;2024-03-08T03:58:26;3.30;99.90
22742;DHT22;11538;48.884;8.696;2024-03-08T04:00:54;3.30;99.90
22742;DHT22;11538;48.884;8.696;2024-03-08T04:03:20;3.30;99.90
22742;DHT22;11538;48.884;8.696;2024-03-08T04:05:48;3.30;99.90
22742;DHT22;11538;48.884;8.696;2024-03-08T04:08:15;3.30;99.90
22742;DHT22;11538;48.884;8.696;2024-03-08T04:10:44;3.30;99.90
22742;DHT22;11538;48.884;8.696;2024-03-08T04:13:11;3.30;99.90
22742;DHT22;11538;48.884;8.696;2024-03-08T04:15:38;3.30;99.90
22742;DHT22;11538;48.884;8.696;2024-03-08T04:18:05;3.30;99.90
22742;DHT22;11538;48.884;8.696;2024-03-08T04:20:32;3.20;99.90
22742;DHT22;11538;48.884;8.696;2024-03-08T04:22:59;3.20;99.90
22742;DHT22;11538;48.884;8.696;2024-03-08T04:25:26;3.30;99.90
22742;DHT22;11538;48.884;8.696;2024-03-08T04:27:53;3.20;99.90
22742;DHT22;11538;48.884;8.696;2024-03-08T04:30:20;3.20;99.90
22742;DHT22;11538;48.884;8.696;2024-03-08T04:32:48;3.20;99.90
22742;DHT22;11538;48.884;8.696;2024-03-08T04:35:18;3.20;99.90
22742;DHT22;11538;48.884;8.696;2024-03-08T04:37:46;3.20;99.90
22742;DHT22;11538;48.884;8.696;2024-03-08T04:40:13;3.30;99.90
22742;DHT22;11538;48.884;8.696;2024-03-08T04:42:42;3.20;99.90
22742;DHT22;11538;48.884;8.696;2024-03-08T04:45:09;3.30;99.90
22742;DHT22;11538;48.884;8.696;2024-03-08T04:47:38;3.20;99.90
22742;DHT22;11538;48.884;8.696;2024-03-08T04:50:05;3.20;99.90
22742;DHT22;11538;48.884;8.696;2024-03-08T04:52:33;3.20;99.90
22742;DHT22;11538;48.884;8.696;2024-03-08T04:55:00;3.20;99.90
22742;DHT22;11538;48.884;8.696;2024-03-08T04:57:27;3.20;99.90
22742;DHT22;11538;48.884;8.696;2024-03-08T04:59:54;3.10;99.90
22742;DHT22;11538;48.884;8.696;2024-03-08T05:02:21;3.10;99.90
22742;DHT22;11538;48.884;8.696;2024-03-08T05:04:49;3.10;99.90
22742;DHT22;11538;48.884;8.696;2024-03-08T05:07:17;3.00;99.90
22742;DHT22;11538;48.884;8.696;2024-03-08T05:09:44;3.00;99.90
22742;DHT22;11538;48.884;8.696;2024-03-08T05:12:18;3.00;99.90
22742;DHT22;11538;48.884;8.696;2024-03-08T05:14:45;3.00;99.90
22742;DHT22;11538;48.884;8.696;2024-03-08T05:17:16;3.00;99.90
22742;DHT22;11538;48.884;8.696;2024-03-08T05:19:43;3.00;99.90
22742;DHT22;11538;48.884;8.696;2024-03-08T05:22:10;3.00;99.90
22742;DHT22;11538;48.884;8.696;2024-03-08T05:24:37;3.00;99.90
22742;DHT22;11538;48.884;8.696;2024-03-08T05:27:04;3.00;99.90
22742;DHT22;11538;48.884;8.696;2024-03-08T05:29:31;3.00;99.90
22742;DHT22;11538;48.884;8.696;2024-03-08T05:32:00;3.00;99.90
22742;DHT22;11538;48.884;8.696;2024-03-08T05:34:27;3.00;99.90
22742;DHT22;11538;48.884;8.696;2024-03-08T05:36:55;2.90;99.90
22742;DHT22;11538;48.884;8.696;2024-03-08T05:39:22;2.90;99.90
22742;DHT22;11538;48.884;8.696;2024-03-08T05:41:50;2.90;99.90
22742;DHT22;11538;48.884;8.696;2024-03-08T05:44:17;2.90;99.90
22742;DHT22;11538;48.884;8.696;2024-03-08T05:46:45;2.90;99.90
22742;DHT22;11538;48.884;8.696;2024-03-08T05:49:13;2.90;99.90
22742;DHT22;11538;48.884;8.696;2024-03-08T05:51:41;2.90;99.90
22742;DHT22;11538;48.884;8.696;2024-03-08T05:54:10;2.90;99.90
22742;DHT22;11538;48.884;8.696;2024-03-08T05:56:41;2.90;99.90
22742;DHT22;11538;48.884;8.696;2024-03-08T05:59:11;2.90;99.90
22742;DHT22;11538;48.884;8.696;2024-03-08T06:01:38;2.90;99.90
22742;DHT22;11538;48.884;8.696;2024-03-08T06:04:09;2.90;99.90
22742;DHT22;11538;48.884;8.696;2024-03-08T06:06:37;2.90;99.90
22742;DHT22;11538;48.884;8.696;2024-03-08T06:09:05;2.90;99.90
22742;DHT22;11538;48.884;8.696;2024-03-08T06:11:44;2.90;99.90
22742;DHT22;11538;48.884;8.696;2024-03-08T06:14:11;2.90;99.90
22742;DHT22;11538;48.884;8.696;2024-03-08T06:16:38;2.80;99.90
22742;DHT22;11538;48.884;8.696;2024-03-08T06:19:05;2.90;99.90
22742;DHT22;11538;48.884;8.696;2024-03-08T06:21:32;2.90;99.90
22742;DHT22;11538;48.884;8.696;2024-03-08T06:23:59;2.90;99.90
22742;DHT22;11538;48.884;8.696;2024-03-08T06:26:27;2.90;99.90
22742;DHT22;11538;48.884;8.696;2024-03-08T06:28:57;2.90;99.90
22742;DHT22;11538;48.884;8.696;2024-03-08T06:31:25;2.90;99.90
22742;DHT22;11538;48.884;8.696;2024-03-08T06:33:52;2.90;99.90
22742;DHT22;11538;48.884;8.696;2024-03-08T06:36:22;2.90;99.90
22742;DHT22;11538;48.884;8.696;2024-03-08T06:38:50;2.90;99.90
22742;DHT22;11538;48.884;8.696;2024-03-08T06:41:17;2.90;99.90
22742;DHT22;11538;48.884;8.696;2024-03-08T06:43:45;2.90;99.90
22742;DHT22;11538;48.884;8.696;2024-03-08T06:46:15;2.90;99.90
22742;DHT22;11538;48.884;8.696;2024-03-08T06:48:42;2.90;99.90
22742;DHT22;11538;48.884;8.696;2024-03-08T06:51:09;3.00;99.90
22742;DHT22;11538;48.884;8.696;2024-03-08T06:53:37;3.00;99.90
22742;DHT22;11538;48.884;8.696;2024-03-08T06:56:05;3.00;99.90
22742;DHT22;11538;48.884;8.696;2024-03-08T06:58:34;3.10;99.90
22742;DHT22;11538;48.884;8.696;2024-03-08T07:01:01;3.20;99.90
22742;DHT22;11538;48.884;8.696;2024-03-08T07:03:31;3.20;99.90
22742;DHT22;11538;48.884;8.696;2024-03-08T07:05:59;3.30;99.90
22742;DHT22;11538;48.884;8.696;2024-03-08T07:08:26;3.40;99.90
22742;DHT22;11538;48.884;8.696;2024-03-08T07:10:54;3.40;99.90
22742;DHT22;11538;48.884;8.696;2024-03-08T07:13:21;3.50;99.90
22742;DHT22;11538;48.884;8.696;2024-03-08T07:15:48;3.60;99.90
22742;DHT22;11538;48.884;8.696;2024-03-08T07:18:15;3.70;99.90
22742;DHT22;11538;48.884;8.696;2024-03-08T07:20:42;3.70;99.90
22742;DHT22;11538;48.884;8.696;2024-03-08T07:23:10;3.90;99.90
22742;DHT22;11538;48.884;8.696;2024-03-08T07:25:37;3.90;99.90
22742;DHT22;11538;48.884;8.696;2024-03-08T07:28:05;4.00;99.90
22742;DHT22;11538;48.884;8.696;2024-03-08T07:30:37;4.10;99.90
22742;DHT22;11538;48.884;8.696;2024-03-08T07:33:11;4.10;99.90
22742;DHT22;11538;48.884;8.696;2024-03-08T07:35:40;4.20;99.90
22742;DHT22;11538;48.884;8.696;2024-03-08T07:38:08;4.20;99.90
22742;DHT22;11538;48.884;8.696;2024-03-08T07:40:40;4.20;99.90
22742;DHT22;11538;48.884;8.696;2024-03-08T07:43:11;4.30;99.90
22742;DHT22;11538;48.884;8.696;2024-03-08T07:45:38;4.40;99.90
22742;DHT22;11538;48.884;8.696;2024-03-08T07:48:06;4.40;99.90
22742;DHT22;11538;48.884;8.696;2024-03-08T07:50:37;4.50;99.90
22742;DHT22;11538;48.884;8.696;2024-03-08T07:53:07;4.50;99.90
22742;DHT22;11538;48.884;8.696;2024-03-08T07:55:35;4.60;99.90
22742;DHT22;11538;48.884;8.696;2024-03-08T07:58:03;4.70;99.90
22742;DHT22;11538;48.884;8.696;2024-03-08T08:00:30;4.70;99.90
22742;DHT22;11538;48.884;8.696;2024-03-08T08:03:00;4.80;99.90
22742;DHT22;11538;48.884;8.696;2024-03-08T08:05:27;4.90;99.90
22742;DHT22;11538;48.884;8.696;2024-03-08T08:07:54;4.90;99.90
22742;DHT22;11538;48.884;8.696;2024-03-08T08:10:22;4.90;99.90
22742;DHT22;11538;48.884;8.696;2024-03-08T08:12:52;4.90;99.90
22742;DHT22;11538;48.884;8.696;2024-03-08T08:15:19;4.90;99.90
22742;DHT22;11538;48.884;8.696;2024-03-08T08:17:47;4.90;99.90
22742;DHT22;11538;48.884;8.696;2024-03-08T08:20:17;4.90;99.90
22742;DHT22;11538;48.884;8.696;2024-03-08T08:22:45;4.90;99.90
22742;DHT22;11538;48.884;8.696;2024-03-08T08:25:12;4.90;99.90
22742;DHT22;11538;48.884;8.696;2024-03-08T08:27:40;4.90;99.90
22742;DHT22;11538;48.884;8.696;2024-03-08T08:30:09;5.00;99.90
22742;DHT22;11538;48.884;8.696;2024-03-08T08:32:38;5.00;99.90
22742;DHT22;11538;48.884;8.696;2024-03-08T08:35:11;5.10;99.90
22742;DHT22;11538;48.884;8.696;2024-03-08T08:37:39;5.10;99.90
22742;DHT22;11538;48.884;8.696;2024-03-08T08:40:07;5.20;99.90
22742;DHT22;11538;48.884;8.696;2024-03-08T08:42:41;5.20;99.90
22742;DHT22;11538;48.884;8.696;2024-03-08T08:45:09;5.30;99.90
22742;DHT22;11538;48.884;8.696;2024-03-08T08:47:46;5.40;99.90
22742;DHT22;11538;48.884;8.696;2024-03-08T08:50:13;5.50;99.90
22742;DHT22;11538;48.884;8.696;2024-03-08T08:52:40;5.50;99.90
22742;DHT22;11538;48.884;8.696;2024-03-08T08:55:10;5.60;99.90
22742;DHT22;11538;48.884;8.696;2024-03-08T08:57:41;5.60;99.90
22742;DHT22;11538;48.884;8.696;2024-03-08T09:00:09;5.70;99.90
22742;DHT22;11538;48.884;8.696;2024-03-08T09:02:42;5.70;99.90
22742;DHT22;11538;48.884;8.696;2024-03-08T09:05:09;5.70;99.90
22742;DHT22;11538;48.884;8.696;2024-03-08T09:07:37;5.80;99.90
22742;DHT22;11538;48.884;8.696;2024-03-08T09:10:04;5.80;99.90
22742;DHT22;11538;48.884;8.696;2024-03-08T09:12:34;5.80;99.90
22742;DHT22;11538;48.884;8.696;2024-03-08T09:15:01;5.80;99.90
22742;DHT22;11538;48.884;8.696;2024-03-08T09:17:28;5.80;99.90
22742;DHT22;11538;48.884;8.696;2024-03-08T09:19:55;5.90;99.90
22742;DHT22;11538;48.884;8.696;2024-03-08T09:22:24;5.80;99.90
22742;DHT22;11538;48.884;8.696;2024-03-08T09:24:51;5.80;99.90
22742;DHT22;11538;48.884;8.696;2024-03-08T09:27:18;5.80;99.90
22742;DHT22;11538;48.884;8.696;2024-03-08T09:29:46;5.80;99.90
22742;DHT22;11538;48.884;8.696;2024-03-08T09:32:13;5.90;99.90
22742;DHT22;11538;48.884;8.696;2024-03-08T09:34:40;5.80;99.90
22742;DHT22;11538;48.884;8.696;2024-03-08T09:37:07;5.80;99.90
22742;DHT22;11538;48.884;8.696;2024-03-08T09:39:35;5.80;99.90
22742;DHT22;11538;48.884;8.696;2024-03-08T09:42:02;5.80;99.90
22742;DHT22;11538;48.884;8.696;2024-03-08T09:44:30;5.80;99.90
22742;DHT22;11538;48.884;8.696;2024-03-08T09:46:58;5.80;99.90
22742;DHT22;11538;48.884;8.696;2024-03-08T09:49:26;5.80;99.90
22742;DHT22;11538;48.884;8.696;2024-03-08T09:51:53;5.90;99.90
22742;DHT22;11538;48.884;8.696;2024-03-08T09:54:22;5.90;99.90
22742;DHT22;11538;48.884;8.696;2024-03-08T09:56:52;5.90;99.90
22742;DHT22;11538;48.884;8.696;2024-03-08T09:59:19;5.90;99.90
22742;DHT22;11538;48.884;8.696;2024-03-08T10:02:12;5.90;99.90
22742;DHT22;11538;48.884;8.696;2024-03-08T10:04:42;6.00;99.90
22742;DHT22;11538;48.884;8.696;2024-03-08T10:07:09;6.00;99.90
22742;DHT22;11538;48.884;8.696;2024-03-08T10:09:36;6.00;99.90
22742;DHT22;11538;48.884;8.696;2024-03-08T10:12:04;6.10;99.90
22742;DHT22;11538;48.884;8.696;2024-03-08T10:14:32;6.10;99.90
22742;DHT22;11538;48.884;8.696;2024-03-08T10:16:59;6.10;99.90
22742;DHT22;11538;48.884;8.696;2024-03-08T10:19:27;6.10;99.90
22742;DHT22;11538;48.884;8.696;2024-03-08T10:21:57;6.10;99.90
22742;DHT22;11538;48.884;8.696;2024-03-08T10:24:26;6.10;99.90
22742;DHT22;11538;48.884;8.696;2024-03-08T10:27:00;6.20;99.90
22742;DHT22;11538;48.884;8.696;2024-03-08T10:29:32;6.30;99.90
22742;DHT22;11538;48.884;8.696;2024-03-08T10:32:00;6.30;99.90
22742;DHT22;11538;48.884;8.696;2024-03-08T10:34:28;6.30;99.90
22742;DHT22;11538;48.884;8.696;2024-03-08T10:37:05;6.40;99.90
22742;DHT22;11538;48.884;8.696;2024-03-08T10:39:37;6.40;99.90
22742;DHT22;11538;48.884;8.696;2024-03-08T10:42:05;6.50;99.90
22742;DHT22;11538;48.884;8.696;2024-03-08T10:44:53;6.60;99.90
22742;DHT22;11538;48.884;8.696;2024-03-08T10:47:41;6.70;99.90
22742;DHT22;11538;48.884;8.696;2024-03-08T10:50:18;6.90;99.90
22742;DHT22;11538;48.884;8.696;2024-03-08T10:52:50;6.90;99.90
22742;DHT22;11538;48.884;8.696;2024-03-08T10:55:19;7.00;99.90
22742;DHT22;11538;48.884;8.696;2024-03-08T10:57:47;7.00;99.90
22742;DHT22;11538;48.884;8.696;2024-03-08T11:00:15;7.10;99.90
22742;DHT22;11538;48.884;8.696;2024-03-08T11:02:45;7.10;99.90
22742;DHT22;11538;48.884;8.696;2024-03-08T11:05:40;7.10;99.90
22742;DHT22;11538;48.884;8.696;2024-03-08T11:08:18;7.10;99.90
22742;DHT22;11538;48.884;8.696;2024-03-08T11:10:53;7.20;99.90
22742;DHT22;11538;48.884;8.696;2024-03-08T11:13:41;7.20;99.90
22742;DHT22;11538;48.884;8.696;2024-03-08T11:16:11;7.20;99.90
22742;DHT22;11538;48.884;8.696;2024-03-08T11:19:00;7.20;99.90
22742;DHT22;11538;48.884;8.696;2024-03-08T11:21:58;7.10;99.90
22742;DHT22;11538;48.884;8.696;2024-03-08T11:24:25;7.10;99.90
22742;DHT22;11538;48.884;8.696;2024-03-08T11:26:57;7.10;99.90
22742;DHT22;11538;48.884;8.696;2024-03-08T11:32:10;7.30;99.90
22742;DHT22;11538;48.884;8.696;2024-03-08T11:34:46;7.40;99.90
22742;DHT22;11538;48.884;8.696;2024-03-08T11:37:17;7.40;99.90
22742;DHT22;11538;48.884;8.696;2024-03-08T11:39:52;7.50;99.90
22742;DHT22;11538;48.884;8.696;2024-03-08T11:42:25;7.60;99.90
22742;DHT22;11538;48.884;8.696;2024-03-08T11:44:55;7.60;99.90
22742;DHT22;11538;48.884;8.696;2024-03-08T11:47:22;7.70;99.90
22742;DHT22;11538;48.884;8.696;2024-03-08T11:49:49;7.80;99.90
22742;DHT22;11538;48.884;8.696;2024-03-08T11:52:17;7.80;99.90
22742;DHT22;11538;48.884;8.696;2024-03-08T11:54:52;7.90;99.90
22742;DHT22;11538;48.884;8.696;2024-03-08T11:57:25;7.90;99.90
22742;DHT22;11538;48.884;8.696;2024-03-08T11:59:54;8.00;99.90
22742;DHT22;11538;48.884;8.696;2024-03-08T12:02:25;8.00;99.90
22742;DHT22;11538;48.884;8.696;2024-03-08T12:05:00;8.00;99.90
22742;DHT22;11538;48.884;8.696;2024-03-08T12:07:30;7.90;99.90
22742;DHT22;11538;48.884;8.696;2024-03-08T12:10:16;7.80;99.90
22742;DHT22;11538;48.884;8.696;2024-03-08T12:12:49;7.90;99.90
22742;DHT22;11538;48.884;8.696;2024-03-08T12:15:20;7.90;99.90
22742;DHT22;11538;48.884;8.696;2024-03-08T12:17:53;8.00;99.90
22742;DHT22;11538;48.884;8.696;2024-03-08T12:20:26;8.10;99.90
22742;DHT22;11538;48.884;8.696;2024-03-08T12:22:57;8.20;99.90
22742;DHT22;11538;48.884;8.696;2024-03-08T12:25:32;8.30;99.90
22742;DHT22;11538;48.884;8.696;2024-03-08T12:28:10;8.70;99.90
22742;DHT22;11538;48.884;8.696;2024-03-08T12:30:46;9.30;99.90
22742;DHT22;11538;48.884;8.696;2024-03-08T12:33:15;9.80;99.90
22742;DHT22;11538;48.884;8.696;2024-03-08T12:35:54;10.20;99.90
22742;DHT22;11538;48.884;8.696;2024-03-08T12:38:24;11.00;99.90
22742;DHT22;11538;48.884;8.696;2024-03-08T12:41:04;11.60;99.90
22742;DHT22;11538;48.884;8.696;2024-03-08T12:43:31;12.20;99.90
22742;DHT22;11538;48.884;8.696;2024-03-08T12:45:59;12.60;99.90
22742;DHT22;11538;48.884;8.696;2024-03-08T12:48:26;13.10;99.90
22742;DHT22;11538;48.884;8.696;2024-03-08T12:50:53;13.40;99.90
22742;DHT22;11538;48.884;8.696;2024-03-08T12:53:21;13.80;99.90
22742;DHT22;11538;48.884;8.696;2024-03-08T12:55:50;14.10;99.90
22742;DHT22;11538;48.884;8.696;2024-03-08T12:58:17;14.40;99.90
22742;DHT22;11538;48.884;8.696;2024-03-08T13:00:44;14.80;99.90
22742;DHT22;11538;48.884;8.696;2024-03-08T13:03:12;15.20;99.90
22742;DHT22;11538;48.884;8.696;2024-03-08T13:05:39;15.60;99.90
22742;DHT22;11538;48.884;8.696;2024-03-08T13:08:09;16.10;99.90
22742;DHT22;11538;48.884;8.696;2024-03-08T13:10:40;16.40;99.90
22742;DHT22;11538;48.884;8.696;2024-03-08T13:13:11;16.60;99.90
22742;DHT22;11538;48.884;8.696;2024-03-08T13:15:42;16.70;99.90
22742;DHT22;11538;48.884;8.696;2024-03-08T13:18:09;17.00;99.90
22742;DHT22;11538;48.884;8.696;2024-03-08T13:20:37;17.30;99.90
22742;DHT22;11538;48.884;8.696;2024-03-08T13:23:14;17.60;99.90
22742;DHT22;11538;48.884;8.696;2024-03-08T13:25:41;17.90;99.90
22742;DHT22;11538;48.884;8.696;2024-03-08T13:28:08;18.10;99.90
22742;DHT22;11538;48.884;8.696;2024-03-08T13:30:35;18.30;99.90
22742;DHT22;11538;48.884;8.696;2024-03-08T13:33:03;18.50;99.90
22742;DHT22;11538;48.884;8.696;2024-03-08T13:35:34;18.50;99.90
22742;DHT22;11538;48.884;8.696;2024-03-08T13:38:01;18.70;99.90
22742;DHT22;11538;48.884;8.696;2024-03-08T13:40:33;18.70;99.90
22742;DHT22;11538;48.884;8.696;2024-03-08T13:43:00;18.80;99.90
22742;DHT22;11538;48.884;8.696;2024-03-08T13:45:28;18.80;99.90
22742;DHT22;11538;48.884;8.696;2024-03-08T13:47:55;18.90;99.90
22742;DHT22;11538;48.884;8.696;2024-03-08T13:50:22;19.00;99.90
22742;DHT22;11538;48.884;8.696;2024-03-08T13:52:50;19.00;99.90
22742;DHT22;11538;48.884;8.696;2024-03-08T13:55:22;19.00;99.90
22742;DHT22;11538;48.884;8.696;2024-03-08T13:57:52;19.00;99.90
22742;DHT22;11538;48.884;8.696;2024-03-08T14:00:20;19.00;99.90
22742;DHT22;11538;48.884;8.696;2024-03-08T14:02:51;19.10;99.90
22742;DHT22;11538;48.884;8.696;2024-03-08T14:05:18;19.10;99.90
22742;DHT22;11538;48.884;8.696;2024-03-08T14:07:46;19.10;99.90
22742;DHT22;11538;48.884;8.696;2024-03-08T14:10:16;19.10;99.90
22742;DHT22;11538;48.884;8.696;2024-03-08T14:12:47;19.00;99.90
22742;DHT22;11538;48.884;8.696;2024-03-08T14:15:15;19.00;99.90
22742;DHT22;11538;48.884;8.696;2024-03-08T14:17:43;18.90;99.90
22742;DHT22;11538;48.884;8.696;2024-03-08T14:20:14;18.80;99.90
22742;DHT22;11538;48.884;8.696;2024-03-08T14:22:41;18.60;99.90
22742;DHT22;11538;48.884;8.696;2024-03-08T14:25:08;18.60;99.90
22742;DHT22;11538;48.884;8.696;2024-03-08T14:27:45;18.40;99.90
22742;DHT22;11538;48.884;8.696;2024-03-08T14:30:13;18.20;99.90
22742;DHT22;11538;48.884;8.696;2024-03-08T14:32:44;18.10;99.90
22742;DHT22;11538;48.884;8.696;2024-03-08T14:35:14;18.00;99.90
22742;DHT22;11538;48.884;8.696;2024-03-08T14:37:41;17.80;99.90
22742;DHT22;11538;48.884;8.696;2024-03-08T14:40:10;17.40;99.90
22742;DHT22;11538;48.884;8.696;2024-03-08T14:42:37;17.10;99.90
22742;DHT22;11538;48.884;8.696;2024-03-08T14:45:09;16.60;99.90
22742;DHT22;11538;48.884;8.696;2024-03-08T14:47:36;16.10;99.90
22742;DHT22;11538;48.884;8.696;2024-03-08T14:50:05;15.60;99.90
22742;DHT22;11538;48.884;8.696;2024-03-08T14:52:35;15.20;99.90
22742;DHT22;11538;48.884;8.696;2024-03-08T14:55:02;14.80;99.90
22742;DHT22;11538;48.884;8.696;2024-03-08T14:57:29;14.50;99.90
22742;DHT22;11538;48.884;8.696;2024-03-08T14:59:59;14.20;99.90
22742;DHT22;11538;48.884;8.696;2024-03-08T15:02:32;13.90;99.90
22742;DHT22;11538;48.884;8.696;2024-03-08T15:05:03;13.60;99.90
22742;DHT22;11538;48.884;8.696;2024-03-08T15:07:35;13.40;99.90
22742;DHT22;11538;48.884;8.696;2024-03-08T15:10:02;13.20;99.90
22742;DHT22;11538;48.884;8.696;2024-03-08T15:12:38;13.00;99.90
22742;DHT22;11538;48.884;8.696;2024-03-08T15:15:07;12.80;99.90
22742;DHT22;11538;48.884;8.696;2024-03-08T15:17:37;12.70;99.90
22742;DHT22;11538;48.884;8.696;2024-03-08T15:20:09;12.50;99.90
22742;DHT22;11538;48.884;8.696;2024-03-08T15:22:56;12.40;99.90
22742;DHT22;11538;48.884;8.696;2024-03-08T15:25:25;12.30;99.90
22742;DHT22;11538;48.884;8.696;2024-03-08T15:27:53;12.20;99.90
22742;DHT22;11538;48.884;8.696;2024-03-08T15:30:21;12.10;99.90
22742;DHT22;11538;48.884;8.696;2024-03-08T15:32:58;12.10;99.90
22742;DHT22;11538;48.884;8.696;2024-03-08T15:35:26;12.00;99.90
22742;DHT22;11538;48.884;8.696;2024-03-08T15:37:53;11.90;99.90
22742;DHT22;11538;48.884;8.696;2024-03-08T15:40:25;11.90;99.90
22742;DHT22;11538;48.884;8.696;2024-03-08T15:42:55;11.80;99.90
22742;DHT22;11538;48.884;8.696;2024-03-08T15:45:23;11.80;99.90
22742;DHT22;11538;48.884;8.696;2024-03-08T15:47:50;11.70;99.90
22742;DHT22;11538;48.884;8.696;2024-03-08T15:50:18;11.60;99.90
22742;DHT22;11538;48.884;8.696;2024-03-08T15:52:47;11.60;99.90
22742;DHT22;11538;48.884;8.696;2024-03-08T15:55:14;11.50;99.90
22742;DHT22;11538;48.884;8.696;2024-03-08T15:57:47;11.50;99.90